< Cyclone 199714 1997 Season Cyclone 199801 >
Cyclone 199715 (HAROLD)
General InformationTrack Information on Google MapsList of All Images || ResourceGoogle EarthGE AnimationAtom FeedGeoJSON
Detalied Best Track (Time Zone = UTC)
Year Month Day Hour Lat. Long. Pressure (hPa) Wind (kt) Class Image Chart
1997 2 16 06 -13.6 157.8 1000 0 0 Image --
1997 2 16 12 -14.1 157.4 1000 0 0 Image --
1997 2 16 18 -14.7 156.8 995 0 0 Image --
1997 2 17 00 -15.4 156.3 990 0 0 Image --
1997 2 17 06 -16.1 155.7 987 0 0 Image --
1997 2 17 12 -16.7 155.5 985 0 0 Image --
1997 2 17 18 -17.1 155.5 985 0 0 Image --
1997 2 18 00 -17.5 155.4 985 0 0 Image --
1997 2 18 06 -17.7 155.7 985 0 0 Image --
1997 2 18 12 -17.9 156.0 980 0 0 Image --
1997 2 18 18 -18.3 156.7 975 0 0 Image --
1997 2 19 00 -18.7 157.4 980 0 0 Image --
1997 2 19 06 -19.2 158.2 980 0 0 Image --
1997 2 19 12 -19.8 159.4 980 0 0 Image --
1997 2 19 18 -20.3 160.8 985 0 0 Image --
1997 2 20 00 -21.1 161.9 987 0 0 Image --
1997 2 20 06 -21.8 162.5 990 0 0 Image --
1997 2 20 12 -22.7 163.2 992 0 0 Image --
1997 2 20 18 -24.2 164.2 994 0 0 Image --
1997 2 21 00 -25.4 164.5 996 0 0 Image --
1997 2 21 06 -27.1 164.5 993 0 0 Image --
1997 2 21 12 -29.1 164.5 993 0 0 Image --
1997 2 21 18 -30.0 165.3 992 0 0 Image --
1997 2 22 00 -31.4 165.5 995 0 0 Image --
1997 2 22 06 -32.5 166.1 995 0 0 Image --
1997 2 22 12 -33.3 166.8 997 0 0 Image --
< Cyclone 199714 1997 Season Cyclone 199801 >

Help